createdAt,value
2022-09-17T00:01:08.416Z,2.53
2022-09-17T00:03:35.891Z,2.10
2022-09-17T00:06:08.952Z,2.60
2022-09-17T00:08:38.355Z,1.90
2022-09-17T00:11:17.692Z,2.35
2022-09-17T00:13:45.053Z,1.92
2022-09-17T00:16:12.649Z,2.30
2022-09-17T00:18:41.848Z,1.85
2022-09-17T00:21:17.364Z,2.25
2022-09-17T00:23:44.696Z,2.10
2022-09-17T00:26:11.996Z,2.10
2022-09-17T00:28:38.947Z,2.15
2022-09-17T00:31:10.019Z,2.72
2022-09-17T00:33:37.186Z,2.92
2022-09-17T00:36:05.487Z,4.97
2022-09-17T00:38:33.278Z,5.10
2022-09-17T00:41:01.004Z,4.50
2022-09-17T00:43:43.910Z,5.22
2022-09-17T00:46:23.634Z,5.40
2022-09-17T00:48:53.758Z,5.20
2022-09-17T00:51:27.005Z,5.75
2022-09-17T00:53:56.026Z,5.30
2022-09-17T00:56:31.640Z,5.30
2022-09-17T00:59:00.500Z,5.13
2022-09-17T01:01:27.580Z,4.95
2022-09-17T01:03:54.691Z,5.40
2022-09-17T01:06:24.411Z,4.88
2022-09-17T01:09:13.371Z,5.13
2022-09-17T01:12:07.406Z,5.30
2022-09-17T01:14:37.359Z,4.93
2022-09-17T01:17:21.301Z,5.60
2022-09-17T01:20:03.271Z,5.22
2022-09-17T01:22:52.270Z,5.10
2022-09-17T01:25:54.174Z,5.38
2022-09-17T01:28:43.889Z,5.35
2022-09-17T01:31:23.051Z,5.70
2022-09-17T01:33:52.874Z,5.47
2022-09-17T01:36:58.500Z,5.70
2022-09-17T01:39:31.849Z,6.20
2022-09-17T01:42:17.820Z,5.40
2022-09-17T01:44:57.615Z,5.07
2022-09-17T01:47:36.118Z,5.68
2022-09-17T01:50:21.524Z,5.35
2022-09-17T01:52:52.362Z,5.30
2022-09-17T01:55:22.586Z,5.20
2022-09-17T01:57:58.018Z,5.10
2022-09-17T02:00:25.346Z,4.63
2022-09-17T02:03:10.641Z,4.22
2022-09-17T02:05:51.312Z,4.25
2022-09-17T02:08:22.133Z,4.20
2022-09-17T02:10:58.468Z,3.53
2022-09-17T02:13:33.232Z,4.28
2022-09-17T02:16:07.811Z,3.97
2022-09-17T02:18:44.888Z,3.83
2022-09-17T02:21:17.225Z,3.85
2022-09-17T02:24:11.736Z,3.75
2022-09-17T02:26:45.150Z,4.57
2022-09-17T02:29:24.222Z,3.72
2022-09-17T02:31:51.302Z,4.10
2022-09-17T02:34:19.756Z,3.15
2022-09-17T02:36:46.940Z,3.70
2022-09-17T02:39:13.859Z,3.63
2022-09-17T02:41:46.727Z,3.40
2022-09-17T02:44:34.603Z,3.03
2022-09-17T02:47:25.314Z,2.47
2022-09-17T02:50:20.768Z,2.45
2022-09-17T02:53:13.577Z,2.10
2022-09-17T02:55:52.653Z,2.42
2022-09-17T02:58:37.980Z,2.30
2022-09-17T03:01:13.091Z,2.38
2022-09-17T03:03:43.783Z,2.10
2022-09-17T03:06:10.762Z,2.30
2022-09-17T03:08:41.448Z,2.63
2022-09-17T03:11:09.318Z,2.60
2022-09-17T03:13:36.878Z,2.45
2022-09-17T03:16:04.525Z,2.35
2022-09-17T03:18:32.378Z,2.00
2022-09-17T03:20:59.367Z,2.33
2022-09-17T03:23:27.983Z,2.08
2022-09-17T03:25:55.345Z,1.80
2022-09-17T03:28:22.824Z,1.80
2022-09-17T03:30:49.749Z,2.08
2022-09-17T03:33:17.068Z,1.92
2022-09-17T03:35:44.771Z,2.10
2022-09-17T03:38:12.487Z,1.98
2022-09-17T03:40:40.501Z,2.00
2022-09-17T03:43:07.852Z,2.10
2022-09-17T03:45:35.211Z,1.75
2022-09-17T03:48:02.321Z,1.38
2022-09-17T03:50:29.195Z,1.75
2022-09-17T03:52:56.376Z,1.30
2022-09-17T03:55:23.444Z,1.67
2022-09-17T03:57:51.317Z,1.80
2022-09-17T04:00:18.270Z,1.60
2022-09-17T04:02:45.367Z,1.27
2022-09-17T04:05:12.633Z,1.40
2022-09-17T04:07:42.697Z,1.25
2022-09-17T04:10:09.857Z,1.00
2022-09-17T04:12:36.970Z,0.90
2022-09-17T04:15:04.967Z,1.17
2022-09-17T04:17:32.139Z,1.15
2022-09-17T04:19:59.304Z,0.93
2022-09-17T04:22:26.533Z,1.10
2022-09-17T04:24:53.526Z,0.90
2022-09-17T04:27:20.672Z,1.00
2022-09-17T04:29:47.577Z,1.10
2022-09-17T04:32:14.576Z,0.90
2022-09-17T04:34:41.697Z,0.93
2022-09-17T04:37:08.927Z,1.00
2022-09-17T04:39:35.875Z,0.90
2022-09-17T04:42:02.849Z,0.80
2022-09-17T04:44:29.785Z,0.80
2022-09-17T04:46:56.780Z,0.80
2022-09-17T04:49:23.766Z,0.88
2022-09-17T04:51:50.748Z,1.00
2022-09-17T04:54:17.938Z,0.63
2022-09-17T04:56:44.877Z,0.82
2022-09-17T04:59:11.869Z,0.75
2022-09-17T05:01:38.867Z,0.77
2022-09-17T05:04:05.855Z,0.55
2022-09-17T05:06:32.806Z,0.80
2022-09-17T05:09:00.126Z,0.65
2022-09-17T05:11:27.109Z,0.73
2022-09-17T05:13:54.296Z,0.90
2022-09-17T05:16:21.326Z,0.88
2022-09-17T05:18:49.586Z,0.90
2022-09-17T05:21:16.560Z,0.95
2022-09-17T05:23:43.598Z,0.93
2022-09-17T05:26:10.817Z,0.80
2022-09-17T05:28:37.782Z,0.60
2022-09-17T05:31:04.792Z,0.70
2022-09-17T05:33:31.887Z,0.60
2022-09-17T05:36:00.002Z,0.57
2022-09-17T05:38:26.951Z,0.82
2022-09-17T05:40:53.851Z,0.90
2022-09-17T05:43:20.957Z,1.00
2022-09-17T05:45:48.207Z,0.90
2022-09-17T05:48:15.937Z,0.82
2022-09-17T05:50:42.919Z,1.17
2022-09-17T05:53:13.740Z,0.55
2022-09-17T05:55:40.703Z,0.77
2022-09-17T05:58:12.661Z,0.70
2022-09-17T06:00:41.070Z,1.00
2022-09-17T06:03:12.220Z,0.70
2022-09-17T06:05:39.724Z,0.85
2022-09-17T06:08:06.808Z,0.50
2022-09-17T06:10:37.374Z,0.50
2022-09-17T06:13:04.853Z,0.70
2022-09-17T06:15:31.787Z,0.73
2022-09-17T06:17:58.685Z,0.70
2022-09-17T06:20:25.700Z,0.77
2022-09-17T06:22:57.321Z,0.82
2022-09-17T06:25:25.114Z,0.93
2022-09-17T06:27:52.528Z,0.70
2022-09-17T06:30:19.454Z,0.80
2022-09-17T06:32:46.347Z,0.70
2022-09-17T06:35:13.301Z,0.82
2022-09-17T06:37:40.910Z,0.88
2022-09-17T06:40:09.136Z,0.98
2022-09-17T06:42:36.197Z,0.80
2022-09-17T06:45:08.557Z,0.90
2022-09-17T06:47:37.221Z,0.80
2022-09-17T06:50:04.441Z,1.02
2022-09-17T06:52:31.344Z,0.95
2022-09-17T06:54:58.255Z,0.68
2022-09-17T06:57:25.321Z,0.90
2022-09-17T06:59:52.293Z,0.93
2022-09-17T07:02:19.392Z,0.88
2022-09-17T07:04:46.443Z,0.77
2022-09-17T07:07:13.475Z,1.58
2022-09-17T07:09:40.417Z,1.55
2022-09-17T07:12:08.633Z,1.92
2022-09-17T07:14:35.893Z,0.88
2022-09-17T07:17:03.400Z,0.70
2022-09-17T07:19:30.439Z,0.55
2022-09-17T07:21:57.410Z,0.90
2022-09-17T07:24:24.413Z,0.57
2022-09-17T07:26:51.818Z,0.73
2022-09-17T07:29:18.889Z,0.70
2022-09-17T07:31:45.998Z,0.75
2022-09-17T07:34:13.093Z,0.80
2022-09-17T07:36:39.984Z,0.65
2022-09-17T07:39:07.136Z,0.90
2022-09-17T07:41:34.768Z,0.80
2022-09-17T07:44:02.587Z,0.70
2022-09-17T07:46:30.230Z,0.40
2022-09-17T07:48:57.220Z,0.30
2022-09-17T07:51:26.215Z,0.55
2022-09-17T07:53:54.856Z,0.40
2022-09-17T07:56:22.795Z,0.40
2022-09-17T07:58:49.774Z,0.40
2022-09-17T08:01:17.717Z,0.85
2022-09-17T08:03:49.275Z,0.30
2022-09-17T08:06:19.678Z,0.45
2022-09-17T08:08:47.240Z,0.40
2022-09-17T08:11:44.621Z,0.40
2022-09-17T08:14:15.836Z,0.40
2022-09-17T08:16:43.131Z,0.70
2022-09-17T08:19:10.862Z,0.80
2022-09-17T08:21:38.270Z,1.00
2022-09-17T08:24:05.469Z,0.50
2022-09-17T08:26:32.736Z,0.68
2022-09-17T08:29:00.039Z,1.00
2022-09-17T08:31:30.124Z,0.60
2022-09-17T08:33:57.854Z,0.82
2022-09-17T08:36:26.423Z,1.00
2022-09-17T08:38:56.792Z,1.45
2022-09-17T08:41:27.482Z,0.95
2022-09-17T08:44:12.898Z,0.88
2022-09-17T08:46:51.950Z,1.08
2022-09-17T08:49:40.481Z,0.80
2022-09-17T08:52:36.495Z,1.00
2022-09-17T08:55:40.552Z,1.20
2022-09-17T08:58:19.704Z,1.10
2022-09-17T09:01:25.563Z,1.35
2022-09-17T09:04:22.764Z,1.70
2022-09-17T09:06:55.486Z,1.45
2022-09-17T09:09:26.268Z,1.50
2022-09-17T09:12:04.496Z,1.50
2022-09-17T09:14:48.071Z,1.30
2022-09-17T09:17:20.041Z,0.95
2022-09-17T09:19:47.344Z,1.35
2022-09-17T09:22:32.525Z,1.75
2022-09-17T09:25:24.973Z,1.10
2022-09-17T09:27:57.702Z,0.95
2022-09-17T09:30:25.964Z,1.50
2022-09-17T09:33:17.839Z,1.40
2022-09-17T09:35:45.495Z,1.85
2022-09-17T09:38:25.141Z,1.20
2022-09-17T09:40:58.507Z,1.10
2022-09-17T09:43:52.988Z,1.20
2022-09-17T09:46:29.563Z,1.33
2022-09-17T09:49:13.243Z,1.13
2022-09-17T09:52:03.189Z,1.13
2022-09-17T09:54:54.573Z,0.68
2022-09-17T09:57:43.296Z,1.02
2022-09-17T10:00:48.107Z,1.27
2022-09-17T10:03:26.755Z,1.17
2022-09-17T10:05:58.571Z,1.08
2022-09-17T10:08:27.202Z,0.68
2022-09-17T10:10:56.790Z,0.93
2022-09-17T10:13:24.591Z,1.27
2022-09-17T10:15:51.745Z,1.10
2022-09-17T10:18:25.365Z,0.80
2022-09-17T10:21:01.142Z,0.90
2022-09-17T10:23:31.638Z,1.05
2022-09-17T10:25:58.723Z,1.00
2022-09-17T10:28:37.124Z,5.95
2022-09-17T10:31:10.395Z,0.80
2022-09-17T10:33:57.491Z,1.10
2022-09-17T10:36:43.933Z,1.13
2022-09-17T10:39:29.321Z,0.80
2022-09-17T10:42:00.550Z,0.50
2022-09-17T10:44:30.060Z,0.50
2022-09-17T10:47:07.929Z,0.73
2022-09-17T10:49:45.461Z,0.80
2022-09-17T10:52:23.107Z,1.00
2022-09-17T10:55:18.083Z,1.20
2022-09-17T10:57:55.203Z,0.90
2022-09-17T11:00:23.584Z,1.00
2022-09-17T11:03:17.893Z,0.63
2022-09-17T11:06:14.293Z,0.80
2022-09-17T11:09:03.027Z,0.55
2022-09-17T11:11:54.661Z,0.70
2022-09-17T11:14:27.575Z,0.80
2022-09-17T11:17:03.907Z,0.43
2022-09-17T11:20:05.502Z,0.73
2022-09-17T11:23:16.836Z,0.90
2022-09-17T11:26:21.263Z,1.13
2022-09-17T11:29:25.414Z,0.70
2022-09-17T11:32:32.401Z,0.77
2022-09-17T11:35:17.934Z,0.80
2022-09-17T11:38:15.769Z,0.30
2022-09-17T11:40:48.509Z,0.80
2022-09-17T11:43:29.708Z,0.55
2022-09-17T11:46:17.533Z,0.75
2022-09-17T11:48:59.872Z,0.55
2022-09-17T11:51:32.808Z,0.60
2022-09-17T11:54:08.894Z,0.52
2022-09-17T11:56:45.778Z,0.60
2022-09-17T11:59:33.524Z,0.80
2022-09-17T12:02:08.940Z,2.00
2022-09-17T12:07:27.759Z,0.90
2022-09-17T12:10:02.823Z,0.70
2022-09-17T12:12:49.193Z,0.50
2022-09-17T12:15:24.573Z,0.80
2022-09-17T12:18:20.489Z,0.40
2022-09-17T12:20:49.252Z,0.70
2022-09-17T12:23:32.387Z,0.40
2022-09-17T12:26:03.355Z,0.80
2022-09-17T12:28:42.024Z,0.50
2022-09-17T12:31:35.422Z,6.28
2022-09-17T12:34:13.757Z,10.40
2022-09-17T12:36:51.855Z,0.88
2022-09-17T12:39:49.978Z,0.90
2022-09-17T12:42:25.802Z,0.60
2022-09-17T12:45:07.949Z,0.90
2022-09-17T12:48:04.302Z,0.70
2022-09-17T12:50:46.745Z,0.70
2022-09-17T12:53:29.011Z,0.50
2022-09-17T12:56:14.700Z,0.80
2022-09-17T12:58:56.904Z,0.50
2022-09-17T13:01:41.201Z,0.50
2022-09-17T13:04:49.920Z,0.60
2022-09-17T13:07:34.855Z,0.90
2022-09-17T13:12:54.632Z,0.60
2022-09-17T13:15:57.248Z,0.60
2022-09-17T13:18:41.710Z,0.70
2022-09-17T13:21:40.420Z,0.60
2022-09-17T13:24:19.578Z,0.70
2022-09-17T13:26:46.984Z,0.70
2022-09-17T13:29:54.167Z,0.50
2022-09-17T13:32:33.413Z,0.63
2022-09-17T13:35:09.766Z,0.70
2022-09-17T13:37:53.890Z,0.52
2022-09-17T13:40:25.743Z,0.60
2022-09-17T13:42:58.017Z,0.50
2022-09-17T13:45:26.454Z,0.63
2022-09-17T13:47:53.595Z,0.38
2022-09-17T13:50:27.912Z,0.68
2022-09-17T13:52:58.040Z,0.55
2022-09-17T13:55:38.701Z,0.77
2022-09-17T13:58:20.839Z,0.52
2022-09-17T14:00:48.161Z,0.43
2022-09-17T14:03:48.559Z,0.50
2022-09-17T14:06:15.456Z,0.57
2022-09-17T14:08:45.651Z,0.60
2022-09-17T14:11:21.908Z,0.63
2022-09-17T14:14:10.499Z,0.50
2022-09-17T14:16:40.731Z,0.43
2022-09-17T14:19:29.100Z,0.45
2022-09-17T14:22:02.240Z,0.50
2022-09-17T14:24:44.325Z,0.30
2022-09-17T14:27:31.885Z,0.70
2022-09-17T14:30:22.143Z,0.40
2022-09-17T14:33:26.909Z,0.22
2022-09-17T14:36:11.595Z,0.40
2022-09-17T14:38:44.851Z,0.60
2022-09-17T14:41:11.789Z,0.50
2022-09-17T14:43:52.372Z,0.50
2022-09-17T14:46:25.058Z,0.60
2022-09-17T14:48:52.133Z,0.52
2022-09-17T14:51:19.005Z,0.63
2022-09-17T14:53:46.808Z,0.50
2022-09-17T14:56:19.154Z,0.70
2022-09-17T14:58:52.621Z,0.60
2022-09-17T15:01:28.315Z,0.45
2022-09-17T15:04:30.843Z,0.50
2022-09-17T15:07:09.348Z,0.52
2022-09-17T15:09:36.339Z,0.40
2022-09-17T15:12:05.000Z,0.47
2022-09-17T15:14:36.605Z,0.50
2022-09-17T15:17:05.892Z,0.38
2022-09-17T15:19:41.713Z,0.20
2022-09-17T15:22:24.113Z,0.20
2022-09-17T15:25:32.987Z,0.32
2022-09-17T15:28:09.756Z,0.30
2022-09-17T15:30:36.782Z,0.50
2022-09-17T15:33:04.100Z,0.43
2022-09-17T15:35:32.836Z,0.50
2022-09-17T15:38:22.715Z,0.32
2022-09-17T15:40:51.675Z,0.40
2022-09-17T15:43:33.080Z,0.50
2022-09-17T15:46:33.068Z,0.32
2022-09-17T15:49:02.494Z,0.50
2022-09-17T15:51:32.420Z,0.30
2022-09-17T15:54:02.076Z,0.40
2022-09-17T15:56:30.664Z,0.50
2022-09-17T15:59:04.634Z,0.40
2022-09-17T16:01:40.598Z,0.32
2022-09-17T16:04:19.655Z,0.40
2022-09-17T16:07:12.632Z,0.40
2022-09-17T16:09:43.811Z,0.20
2022-09-17T16:12:14.335Z,0.30
2022-09-17T16:14:50.005Z,0.25
2022-09-17T16:17:38.456Z,0.77
2022-09-17T16:20:17.522Z,0.32
2022-09-17T16:22:45.123Z,0.25
2022-09-17T16:25:12.236Z,0.20
2022-09-17T16:27:48.204Z,0.40
2022-09-17T16:30:18.028Z,0.38
2022-09-17T16:32:45.169Z,0.30
2022-09-17T16:35:17.405Z,0.20
2022-09-17T16:37:49.085Z,0.40
2022-09-17T16:40:16.760Z,0.43
2022-09-17T16:42:43.799Z,0.90
2022-09-17T16:45:11.108Z,0.40
2022-09-17T16:47:39.806Z,0.38
2022-09-17T16:50:09.890Z,0.30
2022-09-17T16:52:37.062Z,1.30
2022-09-17T16:55:05.429Z,1.00
2022-09-17T16:57:33.396Z,0.45
2022-09-17T17:00:00.806Z,0.40
2022-09-17T17:02:28.039Z,0.40
2022-09-17T17:04:56.261Z,0.40
2022-09-17T17:07:23.373Z,0.40
2022-09-17T17:09:50.246Z,0.50
2022-09-17T17:12:17.274Z,0.40
2022-09-17T17:14:49.848Z,0.38
2022-09-17T17:17:17.928Z,0.40
2022-09-17T17:19:46.546Z,0.60
2022-09-17T17:22:14.670Z,0.40
2022-09-17T17:24:41.900Z,0.60
2022-09-17T17:27:09.674Z,0.40
2022-09-17T17:29:36.713Z,0.80
2022-09-17T17:32:05.026Z,0.50
2022-09-17T17:34:32.421Z,0.50
2022-09-17T17:36:59.890Z,0.50
2022-09-17T17:39:26.920Z,0.70
2022-09-17T17:41:55.674Z,0.50
2022-09-17T17:44:22.853Z,0.43
2022-09-17T17:46:49.912Z,0.40
2022-09-17T17:49:17.029Z,0.50
2022-09-17T17:51:45.062Z,0.50
2022-09-17T17:54:12.015Z,0.88
2022-09-17T17:56:39.075Z,3.55
2022-09-17T17:59:06.049Z,0.70
2022-09-17T18:01:37.998Z,0.80
2022-09-17T18:04:07.744Z,0.70
2022-09-17T18:06:35.545Z,0.45
2022-09-17T18:09:03.418Z,0.60
2022-09-17T18:11:31.126Z,0.68
2022-09-17T18:14:01.003Z,0.43
2022-09-17T18:16:29.122Z,0.70
2022-09-17T18:18:58.268Z,0.45
2022-09-17T18:21:26.357Z,0.50
2022-09-17T18:23:53.611Z,0.40
2022-09-17T18:26:25.985Z,0.70
2022-09-17T18:28:53.542Z,0.60
2022-09-17T18:31:24.457Z,0.60
2022-09-17T18:34:02.773Z,0.50
2022-09-17T18:36:32.235Z,0.30
2022-09-17T18:39:32.869Z,0.40
2022-09-17T18:41:52.638Z,0.50
2022-09-17T18:44:21.849Z,0.75
2022-09-17T18:46:51.136Z,0.55
2022-09-17T18:49:18.441Z,0.47
2022-09-17T18:51:45.518Z,0.43
2022-09-17T18:54:15.435Z,0.40
2022-09-17T18:56:42.548Z,0.50
2022-09-17T18:59:10.615Z,0.43
2022-09-17T19:01:37.889Z,0.50
2022-09-17T19:04:07.641Z,0.57
2022-09-17T19:06:35.438Z,0.50
2022-09-17T19:09:04.029Z,0.40
2022-09-17T19:11:30.984Z,0.47
2022-09-17T19:13:58.443Z,0.60
2022-09-17T19:16:25.732Z,0.60
2022-09-17T19:18:52.909Z,0.57
2022-09-17T19:21:23.229Z,0.50
2022-09-17T19:23:51.685Z,1.00
2022-09-17T19:26:20.940Z,0.50
2022-09-17T19:28:51.322Z,0.77
2022-09-17T19:31:18.391Z,0.80
2022-09-17T19:33:46.711Z,0.70
2022-09-17T19:36:16.406Z,0.60
2022-09-17T19:38:43.880Z,0.40
2022-09-17T19:41:13.302Z,0.60
2022-09-17T19:43:40.864Z,0.40
2022-09-17T19:46:11.736Z,0.40
2022-09-17T19:48:44.523Z,0.40
2022-09-17T19:51:11.641Z,0.50
2022-09-17T19:53:39.072Z,0.50
2022-09-17T19:56:07.714Z,0.50
2022-09-17T19:58:34.710Z,0.22
2022-09-17T20:01:01.675Z,0.40
2022-09-17T20:03:29.567Z,0.60
2022-09-17T20:06:04.928Z,0.30
2022-09-17T20:11:07.341Z,0.40
2022-09-17T20:13:35.145Z,0.40
2022-09-17T20:16:07.110Z,0.60
2022-09-17T20:18:36.297Z,0.57
2022-09-17T20:21:17.595Z,7.43
2022-09-17T20:23:45.169Z,0.60
2022-09-17T20:26:13.573Z,0.45
2022-09-17T20:28:40.936Z,0.45
2022-09-17T20:31:11.477Z,0.40
2022-09-17T20:33:38.744Z,0.40
2022-09-17T20:36:09.139Z,0.50
2022-09-17T20:41:23.678Z,0.40
2022-09-17T20:43:52.632Z,0.68
2022-09-17T20:46:27.555Z,0.22
2022-09-17T20:48:57.388Z,0.30
2022-09-17T20:51:26.565Z,0.20
2022-09-17T20:53:53.704Z,0.40
2022-09-17T20:56:26.452Z,0.30
2022-09-17T20:59:14.210Z,0.50
2022-09-17T21:01:45.030Z,0.17
2022-09-17T21:04:15.007Z,0.15
2022-09-17T21:06:43.515Z,0.30
2022-09-17T21:09:17.788Z,0.22
2022-09-17T21:11:46.686Z,0.38
2022-09-17T21:14:15.886Z,0.35
2022-09-17T21:16:43.383Z,0.20
2022-09-17T21:19:12.914Z,0.40
2022-09-17T21:21:39.918Z,0.40
2022-09-17T21:24:07.549Z,0.30
2022-09-17T21:26:34.916Z,0.30
2022-09-17T21:29:02.241Z,0.30
2022-09-17T21:31:33.373Z,0.20
2022-09-17T21:34:06.345Z,0.50
2022-09-17T21:36:35.932Z,0.28
2022-09-17T21:39:06.339Z,0.20
2022-09-17T21:41:34.445Z,0.50
2022-09-17T21:44:02.670Z,0.30
2022-09-17T21:46:33.874Z,0.40
2022-09-17T21:49:04.864Z,0.50
2022-09-17T21:51:36.460Z,0.30
2022-09-17T21:54:09.420Z,0.30
2022-09-17T21:56:37.089Z,0.45
2022-09-17T21:59:06.895Z,0.30
2022-09-17T22:01:39.667Z,0.40
2022-09-17T22:04:09.094Z,0.28
2022-09-17T22:06:37.092Z,0.40
2022-09-17T22:09:05.565Z,0.30
2022-09-17T22:11:35.568Z,0.30
2022-09-17T22:14:09.081Z,0.30
2022-09-17T22:16:41.854Z,0.20
2022-09-17T22:19:10.609Z,0.13
2022-09-17T22:21:40.882Z,0.20
2022-09-17T22:24:09.763Z,0.40
2022-09-17T22:26:40.329Z,0.22
2022-09-17T22:29:10.791Z,0.28
2022-09-17T22:31:37.899Z,0.20
2022-09-17T22:34:13.795Z,0.40
2022-09-17T22:36:41.311Z,0.35
2022-09-17T22:39:08.568Z,0.43
2022-09-17T22:41:38.060Z,0.20
2022-09-17T22:44:07.037Z,0.40
2022-09-17T22:46:41.167Z,0.30
2022-09-17T22:49:09.838Z,0.20
2022-09-17T22:51:37.781Z,0.20
2022-09-17T22:54:05.463Z,0.20
2022-09-17T22:56:35.118Z,0.30
2022-09-17T22:59:02.231Z,0.30
2022-09-17T23:01:31.560Z,0.20
2022-09-17T23:03:59.483Z,0.30
2022-09-17T23:06:29.196Z,0.20
2022-09-17T23:08:56.799Z,0.30
2022-09-17T23:11:26.633Z,0.30
2022-09-17T23:13:57.565Z,0.20
2022-09-17T23:16:25.506Z,0.25
2022-09-17T23:18:52.587Z,0.25
2022-09-17T23:21:20.712Z,0.20
2022-09-17T23:23:49.720Z,0.30
2022-09-17T23:26:23.527Z,0.25
2022-09-17T23:28:51.388Z,0.30
2022-09-17T23:31:26.887Z,0.30
2022-09-17T23:33:55.598Z,0.28
2022-09-17T23:36:25.416Z,0.20
2022-09-17T23:38:54.064Z,0.20
2022-09-17T23:41:26.731Z,0.22
2022-09-17T23:43:59.878Z,0.40
2022-09-17T23:46:29.084Z,0.20
2022-09-17T23:48:56.491Z,0.68
2022-09-17T23:51:25.793Z,0.30
2022-09-17T23:53:54.498Z,0.20
2022-09-17T23:56:25.059Z,0.40
2022-09-17T23:58:54.172Z,0.20
